Terminal Aerodrome Forecast
Issued by NWS Amarillo, TX

Home | Current Version | Previous Version | Text Only | Print | Product List | Glossary On
Versions: 1 2 3 4 5 6 7 8 9 10 11 12
000
FTUS44 KAMA 311700
TAFGUY
TAF
KGUY 311739Z 3118/0118 15010KT P6SM SKC
     FM010600 18013G20KT P6SM SCT250
     FM011500 19018G32KT P6SM FEW100=

USA.gov is the U.S. government's official web portal to all federal, state and local government web resources and services.